sensor_id;sensor_type;location;lat;lon;timestamp;pressure;altitude;pressure_sealevel;temperature;humidity
61740;BME280;47645;45.288;12.038;2023-04-10T00:02:13;1022.8829165925523;;;11.252734375;63.34961406346696
61740;BME280;47645;45.288;12.038;2023-04-10T00:12:15;1022.8899084742322;;;11.1048828125;61.79962295745237
61740;BME280;47645;45.288;12.038;2023-04-10T00:22:14;1022.7081573669473;;;10.9060546875;63.39598602030589
61740;BME280;47645;45.288;12.038;2023-04-10T00:32:15;1022.7578752960023;;;10.7583984375;63.075031026005504
61740;BME280;47645;45.288;12.038;2023-04-10T00:42:15;1022.7656930904606;;;10.4779296875;61.29149582608893
61740;BME280;47645;45.288;12.038;2023-04-10T00:52:17;1022.7936475791643;;;10.6462890625;63.18631151797644
61740;BME280;47645;45.288;12.038;2023-04-10T01:02:17;1022.7853639536737;;;10.5494140625;64.94813906652293
61740;BME280;47645;45.288;12.038;2023-04-10T01:12:28;1022.7561713046468;;;10.727734375;63.9830131298701
61740;BME280;47645;45.288;12.038;2023-04-10T01:22:20;1022.7738108793422;;;10.4830078125;66.57628602366464
61740;BME280;47645;45.288;12.038;2023-04-10T01:32:21;1022.7676171813594;;;10.27421875;65.40452563564175
61740;BME280;47645;45.288;12.038;2023-04-10T01:42:20;1022.7556827582764;;;9.988671875;67.09947605957588
61740;BME280;47645;45.288;12.038;2023-04-10T01:52:21;1022.6873876039662;;;9.774609375;66.974631313647
61740;BME280;47645;45.288;12.038;2023-04-10T02:02:21;1022.6561451054201;;;9.5453125;68.14304537229404
61740;BME280;47645;45.288;12.038;2023-04-10T02:12:25;1022.659062501351;;;9.550390625;69.80871185362908
61740;BME280;47645;45.288;12.038;2023-04-10T02:22:23;1022.6932471699059;;;9.1478515625;71.20952772089821
61740;BME280;47645;45.288;12.038;2023-04-10T02:32:23;1022.793579671353;;;9.326171875;70.80720651352539
61740;BME280;47645;45.288;12.038;2023-04-10T02:42:24;1022.7758807254867;;;8.69921875;73.72742267622576
61740;BME280;47645;45.288;12.038;2023-04-10T02:52:24;1022.7041311340095;;;8.469921875;74.83753603526982
61740;BME280;47645;45.288;12.038;2023-04-10T03:02:25;1022.6406528838384;;;8.34765625;75.2020985197652
61740;BME280;47645;45.288;12.038;2023-04-10T03:12:25;1022.56015692388;;;8.4291015625;74.19725193022406
61740;BME280;47645;45.288;12.038;2023-04-10T03:22:27;1022.6001829778593;;;8.3375;74.26227881509607
61740;BME280;47645;45.288;12.038;2023-04-10T03:32:27;1022.8012230651308;;;8.041796875;74.43537307435368
61740;BME280;47645;45.288;12.038;2023-04-10T03:42:27;1022.8711261244026;;;7.909375;74.48488195290604
61740;BME280;47645;45.288;12.038;2023-04-10T03:52:28;1022.8582736841804;;;7.89921875;74.09824062322568
61740;BME280;47645;45.288;12.038;2023-04-10T04:02:29;1022.8765475901743;;;7.8431640625;73.3796958871241
61740;BME280;47645;45.288;12.038;2023-04-10T04:12:29;1022.9566330732456;;;7.9958984375;72.80181437010906
61740;BME280;47645;45.288;12.038;2023-04-10T04:22:30;1023.0268008401665;;;7.72578125;72.59717967163411
61740;BME280;47645;45.288;12.038;2023-04-10T04:32:31;1023.1282661639274;;;8.3169921875;71.50011176060194
61740;BME280;47645;45.288;12.038;2023-04-10T04:42:32;1023.195081577535;;;8.00625;71.40396202245626
61740;BME280;47645;45.288;12.038;2023-04-10T04:52:34;1023.277277490214;;;7.9705078125;71.37394129399797
61740;BME280;47645;45.288;12.038;2023-04-10T05:02:33;1023.3516840595389;;;7.5322265625;71.49402383205137
61740;BME280;47645;45.288;12.038;2023-04-10T05:12:33;1023.3902962266792;;;7.506640625;71.97880964089008
61740;BME280;47645;45.288;12.038;2023-04-10T05:22:35;1023.4805566790981;;;7.506640625;71.69003621290955
61740;BME280;47645;45.288;12.038;2023-04-10T05:32:35;1023.5747028900147;;;7.700390625;70.97711594669929
61740;BME280;47645;45.288;12.038;2023-04-10T05:42:35;1023.6513737950644;;;7.7361328125;70.44847090843993
61740;BME280;47645;45.288;12.038;2023-04-10T05:52:36;1023.8783769724262;;;8.0775390625;69.60134310186247
61740;BME280;47645;45.288;12.038;2023-04-10T06:02:36;1023.8716223764466;;;8.3884765625;69.40752626986487
61740;BME280;47645;45.288;12.038;2023-04-10T06:12:37;1023.9626119829459;;;8.7552734375;68.3644796665147
61740;BME280;47645;45.288;12.038;2023-04-10T06:22:38;1024.0024650952084;;;8.6431640625;67.44224192246593
61740;BME280;47645;45.288;12.038;2023-04-10T06:32:38;1024.07083048896;;;8.898046875;67.60875962937835
61740;BME280;47645;45.288;12.038;2023-04-10T06:42:40;1023.8836292540473;;;9.2904296875;66.37054368260635
61740;BME280;47645;45.288;12.038;2023-04-10T06:52:40;1023.8780673238007;;;9.6115234375;64.65561722050796
61740;BME280;47645;45.288;12.038;2023-04-10T07:02:40;1023.8496736675949;;;9.9173828125;64.11785643528526
61740;BME280;47645;45.288;12.038;2023-04-10T07:12:42;1023.8134724863719;;;10.1162109375;63.48407023920919
61740;BME280;47645;45.288;12.038;2023-04-10T07:22:42;1023.8750178206276;;;10.5494140625;62.24915405821733
61740;BME280;47645;45.288;12.038;2023-04-10T07:32:43;1023.8850172615702;;;10.9009765625;61.46449272943341
61740;BME280;47645;45.288;12.038;2023-04-10T07:42:43;1023.9239739325485;;;11.242578125;59.37025280127468
61740;BME280;47645;45.288;12.038;2023-04-10T07:52:44;1023.9728487589152;;;11.380078125;55.67806149183784
61740;BME280;47645;45.288;12.038;2023-04-10T08:02:45;1024.0366182158216;;;11.573828125;53.78619663830866
61740;BME280;47645;45.288;12.038;2023-04-10T08:12:46;1024.0730956240761;;;11.8490234375;52.67433957775234
61740;BME280;47645;45.288;12.038;2023-04-10T08:22:46;1024.1689907108223;;;11.9814453125;52.49333065795266
61740;BME280;47645;45.288;12.038;2023-04-10T08:32:47;1024.1029202206832;;;12.328125;52.027417742555315
61740;BME280;47645;45.288;12.038;2023-04-10T08:42:48;1024.0775561015566;;;12.659375;50.114722503607055
61740;BME280;47645;45.288;12.038;2023-04-10T08:52:51;1024.0723166853036;;;12.43515625;50.37297227823527
61740;BME280;47645;45.288;12.038;2023-04-10T09:02:54;1024.1595158724012;;;12.771484375;49.5831633412604
61740;BME280;47645;45.288;12.038;2023-04-10T09:12:51;1024.0155407596312;;;13.2404296875;51.74040458945937
61740;BME280;47645;45.288;12.038;2023-04-10T09:22:52;1024.012214339198;;;13.607421875;49.2207790743381
61740;BME280;47645;45.288;12.038;2023-04-10T09:32:52;1023.9486125523321;;;13.8826171875;50.34408059866631
61740;BME280;47645;45.288;12.038;2023-04-10T09:42:55;1023.9468000187501;;;14.90703125;48.43129736793032
61740;BME280;47645;45.288;12.038;2023-04-10T09:52:56;1023.9106808124312;;;15.289453125;48.10562731974427
61740;BME280;47645;45.288;12.038;2023-04-10T10:02:55;1023.845084198685;;;15.7787109375;48.74510808472431
61740;BME280;47645;45.288;12.038;2023-04-10T10:12:59;1023.8085373516794;;;16.691015625;47.10041637844818
61740;BME280;47645;45.288;12.038;2023-04-10T10:22:58;1023.6736073520992;;;17.934765625;46.72344222997124
61740;BME280;47645;45.288;12.038;2023-04-10T10:32:58;1023.6281701486369;;;17.924609375;46.52968298270187
61740;BME280;47645;45.288;12.038;2023-04-10T10:43:09;1023.5634822185118;;;18.7146484375;44.6517722217951
61740;BME280;47645;45.288;12.038;2023-04-10T10:53:01;1023.480232740559;;;18.9287109375;41.23495281455289
61740;BME280;47645;45.288;12.038;2023-04-10T11:03:26;1023.3579129019255;;;20.6361328125;41.412818408488754
61740;BME280;47645;45.288;12.038;2023-04-10T11:13:18;1023.1794169630567;;;21.3548828125;36.1652899900518
61740;BME280;47645;45.288;12.038;2023-04-10T11:23:09;1022.9714612007414;;;22.2927734375;36.353213347057405
61740;BME280;47645;45.288;12.038;2023-04-10T11:33:05;1022.8577030267647;;;22.9248046875;38.91894511168397
61740;BME280;47645;45.288;12.038;2023-04-10T11:43:14;1022.8094645600814;;;23.1849609375;38.02783915962893
61740;BME280;47645;45.288;12.038;2023-04-10T11:53:18;1022.7074506313533;;;23.689453125;35.367350589939925
61740;BME280;47645;45.288;12.038;2023-04-10T12:03:08;1022.6622467231729;;;24.194140625;34.845313512053586
61740;BME280;47645;45.288;12.038;2023-04-10T12:13:23;1022.5916779828092;;;24.408203125;34.511837993008825
61740;BME280;47645;45.288;12.038;2023-04-10T12:23:11;1022.4804728399243;;;24.1177734375;36.58558808628905
61740;BME280;47645;45.288;12.038;2023-04-10T12:33:12;1022.3588960258768;;;24.5;34.841410691415525
61740;BME280;47645;45.288;12.038;2023-04-10T12:43:29;1022.3062005557654;;;25.01484375;35.357555647376486
61740;BME280;47645;45.288;12.038;2023-04-10T12:53:15;1022.1674957131531;;;25.1931640625;36.26770672893126
61740;BME280;47645;45.288;12.038;2023-04-10T13:03:16;1022.1512918105445;;;23.36328125;23.54270688367606
61740;BME280;47645;45.288;12.038;2023-04-10T13:13:17;1022.015421234444;;;25.0556640625;31.153706642501422
61740;BME280;47645;45.288;12.038;2023-04-10T13:23:18;1021.9708317725663;;;25.1421875;29.38270477350612
61740;BME280;47645;45.288;12.038;2023-04-10T13:33:20;1021.900995040223;;;24.7701171875;32.02013953804996
61740;BME280;47645;45.288;12.038;2023-04-10T13:43:21;1021.8162531822232;;;25.019921875;34.80559203783574
61740;BME280;47645;45.288;12.038;2023-04-10T13:53:22;1021.807046181786;;;25.11171875;33.79296475854402
61740;BME280;47645;45.288;12.038;2023-04-10T14:03:24;1021.7275637025891;;;25.1015625;33.182580094774636
61740;BME280;47645;45.288;12.038;2023-04-10T14:13:26;1021.6543239708876;;;25.1984375;35.23321587737208
61740;BME280;47645;45.288;12.038;2023-04-10T14:23:26;1021.5499834501612;;;25.448046875;33.35730775641749
61740;BME280;47645;45.288;12.038;2023-04-10T14:33:27;1021.5140735720307;;;25.4888671875;34.17655716365384
61740;BME280;47645;45.288;12.038;2023-04-10T14:43:29;1021.4987942490989;;;24.719140625;34.902483212549804
61740;BME280;47645;45.288;12.038;2023-04-10T14:53:30;1021.3138043332096;;;24.8669921875;35.074744785347654
61740;BME280;47645;45.288;12.038;2023-04-10T15:03:31;1021.2062441705203;;;24.484765625;38.664086507334915
61740;BME280;47645;45.288;12.038;2023-04-10T15:13:33;1021.0838260640293;;;24.4287109375;36.80316930262315
61740;BME280;47645;45.288;12.038;2023-04-10T15:23:34;1021.0446691911337;;;24.398046875;37.92826192651725
61740;BME280;47645;45.288;12.038;2023-04-10T15:33:37;1020.9922831498538;;;24.16875;36.4633992750257
61740;BME280;47645;45.288;12.038;2023-04-10T15:43:37;1020.929212403997;;;23.873046875;37.3696308284883
61740;BME280;47645;45.288;12.038;2023-04-10T15:53:38;1020.7579791895182;;;23.699609375;39.57009978467268
61740;BME280;47645;45.288;12.038;2023-04-10T16:03:39;1020.7684456275565;;;23.45;37.39010892551787
61740;BME280;47645;45.288;12.038;2023-04-10T16:13:41;1020.7304173142134;;;23.0115234375;39.369284801536956
61740;BME280;47645;45.288;12.038;2023-04-10T16:23:41;1020.8274900583109;;;22.3693359375;40.15509789791658
61740;BME280;47645;45.288;12.038;2023-04-10T16:33:42;1020.7261852352541;;;21.6505859375;42.796989084353406
61740;BME280;47645;45.288;12.038;2023-04-10T16:43:43;1020.6165196311689;;;20.97265625;43.821002984895735
61740;BME280;47645;45.288;12.038;2023-04-10T16:53:44;1020.6933336978819;;;20.3966796875;43.07030898512474
61740;BME280;47645;45.288;12.038;2023-04-10T17:03:47;1020.5649323977647;;;19.6830078125;47.87830642440942
61740;BME280;47645;45.288;12.038;2023-04-10T17:13:47;1020.5057334475191;;;19.2447265625;49.53830331564946
61740;BME280;47645;45.288;12.038;2023-04-10T17:23:48;1020.520469785739;;;18.6431640625;48.97161165657174
61740;BME280;47645;45.288;12.038;2023-04-10T17:33:49;1020.6365103543691;;;18.072265625;50.30912460548925
61740;BME280;47645;45.288;12.038;2023-04-10T17:43:50;1020.6469432385093;;;17.53203125;53.19542058576413
61740;BME280;47645;45.288;12.038;2023-04-10T17:53:51;1020.6627381663535;;;17.236328125;54.645096221649126
61740;BME280;47645;45.288;12.038;2023-04-10T18:03:52;1020.6308831225892;;;16.6197265625;52.99655320158371
61740;BME280;47645;45.288;12.038;2023-04-10T18:13:53;1020.6642160522581;;;16.359765625;53.99144957148202
61740;BME280;47645;45.288;12.038;2023-04-10T18:23:54;1020.7009329607737;;;15.9826171875;55.218294135436615
61740;BME280;47645;45.288;12.038;2023-04-10T18:33:56;1020.7368145367692;;;15.6359375;57.6305695658389
61740;BME280;47645;45.288;12.038;2023-04-10T18:43:56;1020.70043052168;;;15.3607421875;54.517042213817575
61740;BME280;47645;45.288;12.038;2023-04-10T18:53:58;1020.7335430257215;;;14.764453125;50.14704348679451
61740;BME280;47645;45.288;12.038;2023-04-10T19:03:58;1020.7152846949407;;;14.76953125;54.643186850006714
61740;BME280;47645;45.288;12.038;2023-04-10T19:13:59;1020.7454931794279;;;14.473828125;57.87981245879843
61740;BME280;47645;45.288;12.038;2023-04-10T19:24:00;1020.789396488391;;;14.366796875;58.39974778586373
61740;BME280;47645;45.288;12.038;2023-04-10T19:34:04;1020.8120519843357;;;14.0712890625;56.69144681847677
61740;BME280;47645;45.288;12.038;2023-04-10T19:44:01;1020.8197736182618;;;13.94375;57.33886559652813
61740;BME280;47645;45.288;12.038;2023-04-10T19:54:03;1020.7611911681946;;;13.7705078125;58.60297535144216
61740;BME280;47645;45.288;12.038;2023-04-10T20:04:03;1020.7625303577422;;;13.6583984375;58.97486556913597
61740;BME280;47645;45.288;12.038;2023-04-10T20:14:04;1020.78299929394;;;13.515625;56.71342373297625
61740;BME280;47645;45.288;12.038;2023-04-10T20:24:05;1020.871945130831;;;13.4646484375;58.426038311429785
61740;BME280;47645;45.288;12.038;2023-04-10T20:34:06;1020.7505593442438;;;13.296484375;56.51363003111598
61740;BME280;47645;45.288;12.038;2023-04-10T20:44:07;1020.6555409224933;;;13.1181640625;59.76398286453447
61740;BME280;47645;45.288;12.038;2023-04-10T20:54:08;1020.5169955049321;;;13.072265625;58.58259851029884
61740;BME280;47645;45.288;12.038;2023-04-10T21:04:09;1020.5072573041615;;;12.878515625;59.32585477333217
61740;BME280;47645;45.288;12.038;2023-04-10T21:14:11;1020.4783671711281;;;12.7154296875;59.61492928436265
61740;BME280;47645;45.288;12.038;2023-04-10T21:24:12;1020.4822613578418;;;12.5830078125;59.233261578111595
61740;BME280;47645;45.288;12.038;2023-04-10T21:34:11;1020.5703227917568;;;12.460546875;58.795669738199194
61740;BME280;47645;45.288;12.038;2023-04-10T21:44:13;1020.6549859989099;;;12.333203125;61.22726451631559
61740;BME280;47645;45.288;12.038;2023-04-10T21:54:13;1020.6303405108702;;;12.246484375;61.082710611453464
61740;BME280;47645;45.288;12.038;2023-04-10T22:04:15;1020.5178595208994;;;12.012109375;60.47147743194202
61740;BME280;47645;45.288;12.038;2023-04-10T22:14:14;1020.4429545702063;;;12.0375;60.69087561552203
61740;BME280;47645;45.288;12.038;2023-04-10T22:24:14;1020.4779705237523;;;11.9357421875;62.404578559119216
61740;BME280;47645;45.288;12.038;2023-04-10T22:34:15;1020.3535814702658;;;11.8234375;61.3348932864346
61740;BME280;47645;45.288;12.038;2023-04-10T22:44:16;1020.33312736783;;;11.7216796875;60.83774609630867
61740;BME280;47645;45.288;12.038;2023-04-10T22:54:17;1020.4959574833874;;;11.6451171875;62.203473311602615
61740;BME280;47645;45.288;12.038;2023-04-10T23:04:17;1020.6369106584494;;;11.5482421875;61.55548880804301
61740;BME280;47645;45.288;12.038;2023-04-10T23:14:18;1020.56539699032;;;11.46171875;61.606491134986044
61740;BME280;47645;45.288;12.038;2023-04-10T23:24:19;1020.4607626844521;;;11.3392578125;62.29313867921202
61740;BME280;47645;45.288;12.038;2023-04-10T23:34:20;1020.3443643740075;;;11.252734375;62.58471476247336
61740;BME280;47645;45.288;12.038;2023-04-10T23:44:20;1020.3026823418525;;;11.140625;62.902336596448414
61740;BME280;47645;45.288;12.038;2023-04-10T23:54:21;1020.2744562584245;;;11.1048828125;63.51855292605647
